createdAt,value
2018-04-30T00:00:44.814Z,997.99
2018-04-30T00:01:46.206Z,997.98
2018-04-30T00:02:47.581Z,997.94
2018-04-30T00:03:48.975Z,997.89
2018-04-30T00:04:50.362Z,997.88
2018-04-30T00:05:51.746Z,997.88
2018-04-30T00:06:53.141Z,997.86
2018-04-30T00:07:54.519Z,997.81
2018-04-30T00:08:55.906Z,997.79
2018-04-30T00:09:57.303Z,997.82
2018-04-30T00:10:58.683Z,997.80
2018-04-30T00:12:00.074Z,997.78
2018-04-30T00:13:01.452Z,997.79
2018-04-30T00:14:02.829Z,997.76
2018-04-30T00:15:04.226Z,997.75
2018-04-30T00:16:05.605Z,997.69
2018-04-30T00:17:06.985Z,997.70
2018-04-30T00:18:08.369Z,997.64
2018-04-30T00:19:09.805Z,997.66
2018-04-30T00:20:11.135Z,997.68
2018-04-30T00:21:12.518Z,997.60
2018-04-30T00:22:13.916Z,997.56
2018-04-30T00:23:15.291Z,997.58
2018-04-30T00:24:16.670Z,997.55
2018-04-30T00:25:18.048Z,997.54
2018-04-30T00:26:19.450Z,997.50
2018-04-30T00:27:20.824Z,997.51
2018-04-30T00:28:22.217Z,997.47
2018-04-30T00:29:23.553Z,997.45
2018-04-30T00:30:24.943Z,997.45
2018-04-30T00:31:26.335Z,997.46
2018-04-30T00:32:27.717Z,997.43
2018-04-30T00:33:29.107Z,997.43
2018-04-30T00:34:30.492Z,997.40
2018-04-30T00:35:31.880Z,997.40
2018-04-30T00:36:33.260Z,997.40
2018-04-30T00:37:34.642Z,997.38
2018-04-30T00:38:36.018Z,997.37
2018-04-30T00:39:37.400Z,997.36
2018-04-30T00:40:38.774Z,997.33
2018-04-30T00:41:40.166Z,997.28
2018-04-30T00:42:41.560Z,997.30
2018-04-30T00:43:42.957Z,997.27
2018-04-30T00:44:44.335Z,997.29
2018-04-30T00:45:45.717Z,997.33
2018-04-30T00:46:47.109Z,997.39
2018-04-30T00:47:48.494Z,997.38
2018-04-30T00:48:49.872Z,997.32
2018-04-30T00:49:51.257Z,997.31
2018-04-30T00:50:52.717Z,997.27
2018-04-30T00:51:54.034Z,997.19
2018-04-30T00:52:55.407Z,997.18
2018-04-30T00:53:56.824Z,997.19
2018-04-30T00:54:58.176Z,997.17
2018-04-30T00:55:59.564Z,997.16
2018-04-30T00:57:00.945Z,997.14
2018-04-30T00:58:02.319Z,997.09
2018-04-30T00:59:03.710Z,997.08
2018-04-30T01:00:05.095Z,997.06
2018-04-30T01:01:06.475Z,997.01
2018-04-30T01:02:07.870Z,997.02
2018-04-30T01:03:09.252Z,996.97
2018-04-30T01:04:10.646Z,996.95
2018-04-30T01:05:12.026Z,996.96
2018-04-30T01:06:13.407Z,996.94
2018-04-30T01:07:14.774Z,996.95
2018-04-30T01:08:16.172Z,996.94
2018-04-30T01:09:17.549Z,996.88
2018-04-30T01:10:18.934Z,996.86
2018-04-30T01:11:20.307Z,996.91
2018-04-30T01:12:21.710Z,996.89
2018-04-30T01:13:23.096Z,996.84
2018-04-30T01:14:24.503Z,996.79
2018-04-30T01:15:25.887Z,996.82
2018-04-30T01:16:27.274Z,996.80
2018-04-30T01:17:28.660Z,996.74
2018-04-30T01:18:30.038Z,996.72
2018-04-30T01:19:31.420Z,996.68
2018-04-30T01:20:32.813Z,996.65
2018-04-30T01:21:34.194Z,996.63
2018-04-30T01:22:35.577Z,996.65
2018-04-30T01:23:36.973Z,996.68
2018-04-30T01:24:38.348Z,996.67
2018-04-30T01:25:40.602Z,996.64
2018-04-30T01:26:41.989Z,996.63
2018-04-30T01:27:43.371Z,996.65
2018-04-30T01:28:44.760Z,996.64
2018-04-30T01:29:46.143Z,996.61
2018-04-30T01:30:47.523Z,996.60
2018-04-30T01:31:48.911Z,996.57
2018-04-30T01:32:50.289Z,996.49
2018-04-30T01:33:51.672Z,996.46
2018-04-30T01:34:53.054Z,996.45
2018-04-30T01:35:54.446Z,996.40
2018-04-30T01:36:55.824Z,996.42
2018-04-30T01:37:57.216Z,996.38
2018-04-30T01:38:58.599Z,996.37
2018-04-30T01:39:59.976Z,996.32
2018-04-30T01:41:01.356Z,996.32
2018-04-30T01:42:02.749Z,996.26
2018-04-30T01:43:04.150Z,996.27
2018-04-30T01:44:05.527Z,996.24
2018-04-30T01:45:06.911Z,996.26
2018-04-30T01:46:08.302Z,996.23
2018-04-30T01:47:09.679Z,996.23
2018-04-30T01:48:11.057Z,996.19
2018-04-30T01:49:12.443Z,996.24
2018-04-30T01:50:13.842Z,996.23
2018-04-30T01:51:15.928Z,996.14
2018-04-30T01:52:17.312Z,996.17
2018-04-30T01:53:18.700Z,996.11
2018-04-30T01:54:20.080Z,996.12
2018-04-30T01:55:21.459Z,996.10
2018-04-30T01:56:22.911Z,996.10
2018-04-30T01:57:24.225Z,995.99
2018-04-30T01:58:25.618Z,995.98
2018-04-30T01:59:26.964Z,995.89
2018-04-30T02:00:28.352Z,995.88
2018-04-30T02:01:29.734Z,995.93
2018-04-30T02:02:31.111Z,995.88
2018-04-30T02:03:32.490Z,995.86
2018-04-30T02:04:33.874Z,995.86
2018-04-30T02:05:35.257Z,995.81
2018-04-30T02:06:36.636Z,995.76
2018-04-30T02:07:38.019Z,995.76
2018-04-30T02:08:39.402Z,995.73
2018-04-30T02:09:40.794Z,995.75
2018-04-30T02:10:42.183Z,995.79
2018-04-30T02:11:43.557Z,995.79
2018-04-30T02:12:44.943Z,995.72
2018-04-30T02:13:46.320Z,995.68
2018-04-30T02:14:48.394Z,995.70
2018-04-30T02:15:49.784Z,995.73
2018-04-30T02:16:51.157Z,995.67
2018-04-30T02:17:52.537Z,995.64
2018-04-30T02:18:53.932Z,995.61
2018-04-30T02:19:55.323Z,995.61
2018-04-30T02:20:56.725Z,995.60
2018-04-30T02:21:58.111Z,995.60
2018-04-30T02:22:59.498Z,995.59
2018-04-30T02:24:00.882Z,995.54
2018-04-30T02:25:02.266Z,995.55
2018-04-30T02:26:03.652Z,995.51
2018-04-30T02:27:05.036Z,995.52
2018-04-30T02:28:07.229Z,995.51
2018-04-30T02:29:07.761Z,995.51
2018-04-30T02:30:09.151Z,995.52
2018-04-30T02:31:10.535Z,995.46
2018-04-30T02:32:11.922Z,995.49
2018-04-30T02:33:13.308Z,995.51
2018-04-30T02:34:14.691Z,995.46
2018-04-30T02:35:16.073Z,995.45
2018-04-30T02:36:17.449Z,995.37
2018-04-30T02:37:18.848Z,995.38
2018-04-30T02:38:20.217Z,995.33
2018-04-30T02:39:21.608Z,995.27
2018-04-30T02:40:22.997Z,995.26
2018-04-30T02:41:24.393Z,995.25
2018-04-30T02:42:26.624Z,995.21
2018-04-30T02:43:28.004Z,995.19
2018-04-30T02:44:29.383Z,995.20
2018-04-30T02:45:31.741Z,995.15
2018-04-30T02:46:33.126Z,995.14
2018-04-30T02:47:34.511Z,995.12
2018-04-30T02:48:35.886Z,995.09
2018-04-30T02:49:37.268Z,995.04
2018-04-30T02:50:38.642Z,995.00
2018-04-30T02:51:40.024Z,994.98
2018-04-30T02:52:41.414Z,994.96
2018-04-30T02:53:42.795Z,994.90
2018-04-30T02:54:44.191Z,994.89
2018-04-30T02:55:45.558Z,994.81
2018-04-30T02:56:46.954Z,994.87
2018-04-30T02:57:48.326Z,994.86
2018-04-30T02:58:49.714Z,994.88
2018-04-30T02:59:51.095Z,994.88
2018-04-30T03:00:52.485Z,994.85
2018-04-30T03:01:53.871Z,994.88
2018-04-30T03:02:55.247Z,994.88
2018-04-30T03:03:56.630Z,994.80
2018-04-30T03:04:58.016Z,994.80
2018-04-30T03:05:59.399Z,994.75
2018-04-30T03:07:00.787Z,994.72
2018-04-30T03:08:02.177Z,994.74
2018-04-30T03:09:03.560Z,994.72
2018-04-30T03:10:04.955Z,994.69
2018-04-30T03:11:06.339Z,994.70
2018-04-30T03:12:07.731Z,994.60
2018-04-30T03:13:09.107Z,994.58
2018-04-30T03:14:10.489Z,994.56
2018-04-30T03:15:11.867Z,994.45
2018-04-30T03:16:13.257Z,994.45
2018-04-30T03:17:14.632Z,994.39
2018-04-30T03:18:16.020Z,994.40
2018-04-30T03:19:17.402Z,994.36
2018-04-30T03:20:18.785Z,994.26
2018-04-30T03:21:20.175Z,994.31
2018-04-30T03:22:21.554Z,994.26
2018-04-30T03:23:22.943Z,994.23
2018-04-30T03:24:24.317Z,994.18
2018-04-30T03:25:25.706Z,994.22
2018-04-30T03:26:27.098Z,994.15
2018-04-30T03:27:28.482Z,994.10
2018-04-30T03:28:29.853Z,994.07
2018-04-30T03:29:31.240Z,994.07
2018-04-30T03:30:32.632Z,994.10
2018-04-30T03:31:35.336Z,994.06
2018-04-30T03:32:36.712Z,994.11
2018-04-30T03:33:38.092Z,994.02
2018-04-30T03:34:39.481Z,994.10
2018-04-30T03:35:40.875Z,994.13
2018-04-30T03:36:42.261Z,994.09
2018-04-30T03:37:43.665Z,994.10
2018-04-30T03:38:45.048Z,994.04
2018-04-30T03:39:46.428Z,994.03
2018-04-30T03:40:47.817Z,994.10
2018-04-30T03:41:49.196Z,994.05
2018-04-30T03:42:50.581Z,993.97
2018-04-30T03:43:51.968Z,993.95
2018-04-30T03:44:53.351Z,993.95
2018-04-30T03:45:54.743Z,993.91
2018-04-30T03:46:56.125Z,993.89
2018-04-30T03:47:57.517Z,993.88
2018-04-30T03:48:58.900Z,993.82
2018-04-30T03:50:00.281Z,993.76
2018-04-30T03:51:01.680Z,993.74
2018-04-30T03:52:03.065Z,993.73
2018-04-30T03:53:04.454Z,993.73
2018-04-30T03:54:05.836Z,993.69
2018-04-30T03:55:07.225Z,993.69
2018-04-30T03:56:08.606Z,993.67
2018-04-30T03:57:09.998Z,993.66
2018-04-30T03:58:11.383Z,993.67
2018-04-30T03:59:12.771Z,993.60
2018-04-30T04:00:14.150Z,993.63
2018-04-30T04:01:15.542Z,993.57
2018-04-30T04:02:16.921Z,993.58
2018-04-30T04:03:18.302Z,993.56
2018-04-30T04:04:19.695Z,993.49
2018-04-30T04:05:21.091Z,993.48
2018-04-30T04:06:22.481Z,993.43
2018-04-30T04:07:23.867Z,993.43
2018-04-30T04:08:25.257Z,993.36
2018-04-30T04:09:26.643Z,993.34
2018-04-30T04:10:28.029Z,993.25
2018-04-30T04:11:29.421Z,993.29
2018-04-30T04:12:30.803Z,993.23
2018-04-30T04:13:32.181Z,993.25
2018-04-30T04:14:33.571Z,993.25
2018-04-30T04:15:34.952Z,993.29
2018-04-30T04:16:36.338Z,993.27
2018-04-30T04:17:37.721Z,993.30
2018-04-30T04:18:39.103Z,993.29
2018-04-30T04:19:40.497Z,993.29
2018-04-30T04:20:41.886Z,993.32
2018-04-30T04:21:43.271Z,993.37
2018-04-30T04:22:44.660Z,993.27
2018-04-30T04:23:46.062Z,993.32
2018-04-30T04:24:47.529Z,993.28
2018-04-30T04:25:48.837Z,993.28
2018-04-30T04:26:50.229Z,993.33
2018-04-30T04:27:51.615Z,993.33
2018-04-30T04:28:53.003Z,993.21
2018-04-30T04:29:54.395Z,993.26
2018-04-30T04:30:55.780Z,993.15
2018-04-30T04:31:57.169Z,993.28
2018-04-30T04:32:58.571Z,993.18
2018-04-30T04:33:59.964Z,993.26
2018-04-30T04:35:01.349Z,993.27
2018-04-30T04:36:02.737Z,993.20
2018-04-30T04:37:04.131Z,993.18
2018-04-30T04:38:05.539Z,993.17
2018-04-30T04:39:06.923Z,993.08
2018-04-30T04:40:08.318Z,993.10
2018-04-30T04:41:09.710Z,993.09
2018-04-30T04:42:11.103Z,993.12
2018-04-30T04:43:12.552Z,993.10
2018-04-30T04:44:13.867Z,993.09
2018-04-30T04:45:15.263Z,993.14
2018-04-30T04:46:16.659Z,993.07
2018-04-30T04:47:18.053Z,993.09
2018-04-30T04:48:19.437Z,993.10
2018-04-30T04:49:20.819Z,993.16
2018-04-30T04:50:22.215Z,993.06
2018-04-30T04:51:24.577Z,993.06
2018-04-30T04:52:25.964Z,993.00
2018-04-30T04:53:27.360Z,992.96
2018-04-30T04:54:28.758Z,992.97
2018-04-30T04:55:30.135Z,992.95
2018-04-30T04:56:31.522Z,992.96
2018-04-30T04:57:32.910Z,992.91
2018-04-30T04:58:34.298Z,993.02
2018-04-30T04:59:35.690Z,992.97
2018-04-30T05:00:37.074Z,992.88
2018-04-30T05:01:38.486Z,992.99
2018-04-30T05:02:39.875Z,993.01
2018-04-30T05:03:41.260Z,992.91
2018-04-30T05:04:42.653Z,992.90
2018-04-30T05:05:44.053Z,992.84
2018-04-30T05:06:45.441Z,992.87
2018-04-30T05:07:46.818Z,992.85
2018-04-30T05:08:48.223Z,992.85
2018-04-30T05:09:49.623Z,992.83
2018-04-30T05:10:51.036Z,992.86
2018-04-30T05:11:52.403Z,992.91
2018-04-30T05:12:53.838Z,992.84
2018-04-30T05:13:55.227Z,992.87
2018-04-30T05:14:56.628Z,992.86
2018-04-30T05:15:58.015Z,992.78
2018-04-30T05:16:59.411Z,992.80
2018-04-30T05:18:00.806Z,992.81
2018-04-30T05:19:02.196Z,992.84
2018-04-30T05:20:03.595Z,992.84
2018-04-30T05:21:04.987Z,992.76
2018-04-30T05:22:06.382Z,992.78
2018-04-30T05:23:07.774Z,992.77
2018-04-30T05:24:09.173Z,992.73
2018-04-30T05:25:10.555Z,992.71
2018-04-30T05:26:11.948Z,992.69
2018-04-30T05:27:13.335Z,992.71
2018-04-30T05:28:14.716Z,992.77
2018-04-30T05:29:16.108Z,992.67
2018-04-30T05:30:17.512Z,992.64
2018-04-30T05:31:18.897Z,992.56
2018-04-30T05:32:20.290Z,992.64
2018-04-30T05:33:21.679Z,992.54
2018-04-30T05:34:23.074Z,992.54
2018-04-30T05:35:24.467Z,992.56
2018-04-30T05:36:25.851Z,992.59
2018-04-30T05:37:27.242Z,992.56
2018-04-30T05:38:28.635Z,992.62
2018-04-30T05:39:30.016Z,992.57
2018-04-30T05:40:31.407Z,992.58
2018-04-30T05:41:32.797Z,992.51
2018-04-30T05:42:34.189Z,992.47
2018-04-30T05:43:35.586Z,992.43
2018-04-30T05:44:36.979Z,992.42
2018-04-30T05:45:38.375Z,992.46
2018-04-30T05:46:39.777Z,992.38
2018-04-30T05:47:41.160Z,992.35
2018-04-30T05:48:42.543Z,992.36
2018-04-30T05:49:43.933Z,992.43
2018-04-30T05:50:45.328Z,992.31
2018-04-30T05:51:46.716Z,992.38
2018-04-30T05:52:48.114Z,992.42
2018-04-30T05:53:49.516Z,992.31
2018-04-30T05:54:50.911Z,992.31
2018-04-30T05:55:52.298Z,992.26
2018-04-30T05:56:53.691Z,992.35
2018-04-30T05:57:55.093Z,992.20
2018-04-30T05:58:56.503Z,992.24
2018-04-30T05:59:57.888Z,992.17
2018-04-30T06:00:59.292Z,992.20
2018-04-30T06:02:00.683Z,992.11
2018-04-30T06:03:02.073Z,992.16
2018-04-30T06:04:03.460Z,992.19
2018-04-30T06:05:04.854Z,992.19
2018-04-30T06:06:06.255Z,992.16
2018-04-30T06:07:07.652Z,992.15
2018-04-30T06:08:09.055Z,992.10
2018-04-30T06:09:10.444Z,992.05
2018-04-30T06:10:11.838Z,992.07
2018-04-30T06:11:13.230Z,992.00
2018-04-30T06:12:14.746Z,992.01
2018-04-30T06:13:16.027Z,991.97
2018-04-30T06:14:17.421Z,991.99
2018-04-30T06:15:18.912Z,991.89
2018-04-30T06:16:20.215Z,991.90
2018-04-30T06:17:21.610Z,991.90
2018-04-30T06:18:23.006Z,991.87
2018-04-30T06:19:24.399Z,991.88
2018-04-30T06:20:25.790Z,991.85
2018-04-30T06:21:27.189Z,991.88
2018-04-30T06:22:28.581Z,991.96
2018-04-30T06:23:29.979Z,992.05
2018-04-30T06:24:31.374Z,992.09
2018-04-30T06:25:32.771Z,992.10
2018-04-30T06:26:34.219Z,992.03
2018-04-30T06:27:35.561Z,991.98
2018-04-30T06:28:36.965Z,991.99
2018-04-30T06:29:38.353Z,992.00
2018-04-30T06:30:39.751Z,992.01
2018-04-30T06:31:41.149Z,991.94
2018-04-30T06:32:42.544Z,991.91
2018-04-30T06:33:43.948Z,991.85
2018-04-30T06:34:45.338Z,991.94
2018-04-30T06:35:46.745Z,991.79
2018-04-30T06:36:48.134Z,991.74
2018-04-30T06:37:49.543Z,991.84
2018-04-30T06:38:50.936Z,991.69
2018-04-30T06:39:52.288Z,991.68
2018-04-30T06:40:53.687Z,991.55
2018-04-30T06:41:55.084Z,991.59
2018-04-30T06:42:56.482Z,991.53
2018-04-30T06:43:57.884Z,991.52
2018-04-30T06:44:59.272Z,991.47
2018-04-30T06:46:00.680Z,991.48
2018-04-30T06:47:02.096Z,991.45
2018-04-30T06:48:03.480Z,991.55
2018-04-30T06:49:04.881Z,991.59
2018-04-30T06:50:06.285Z,991.52
2018-04-30T06:51:07.687Z,991.49
2018-04-30T06:52:09.083Z,991.45
2018-04-30T06:53:10.487Z,991.46
2018-04-30T06:54:11.897Z,991.37
2018-04-30T06:55:13.277Z,991.41
2018-04-30T06:56:14.675Z,991.37
2018-04-30T06:57:16.068Z,991.34
2018-04-30T06:58:17.470Z,991.30
2018-04-30T06:59:18.860Z,991.39
2018-04-30T07:00:20.281Z,991.29
2018-04-30T07:01:21.658Z,991.37
2018-04-30T07:02:23.056Z,991.31
2018-04-30T07:03:24.453Z,991.30
2018-04-30T07:04:25.847Z,991.31
2018-04-30T07:05:27.231Z,991.31
2018-04-30T07:06:28.632Z,991.33
2018-04-30T07:07:30.026Z,991.19
2018-04-30T07:08:31.421Z,991.19
2018-04-30T07:09:33.028Z,991.06
2018-04-30T07:10:34.241Z,991.09
2018-04-30T07:11:35.649Z,991.06
2018-04-30T07:12:37.039Z,991.05
2018-04-30T07:13:38.455Z,990.98
2018-04-30T07:14:39.841Z,990.95
2018-04-30T07:15:41.242Z,990.97
2018-04-30T07:16:42.760Z,990.97
2018-04-30T07:17:44.158Z,991.06
2018-04-30T07:18:45.557Z,991.15
2018-04-30T07:19:46.961Z,991.06
2018-04-30T07:20:48.369Z,991.17
2018-04-30T07:21:49.753Z,991.06
2018-04-30T07:22:51.148Z,991.07
2018-04-30T07:23:52.545Z,991.00
2018-04-30T07:24:53.939Z,990.96
2018-04-30T07:25:55.331Z,990.91
2018-04-30T07:26:56.735Z,990.85
2018-04-30T07:27:58.128Z,990.86
2018-04-30T07:28:59.531Z,990.85
2018-04-30T07:30:00.911Z,990.88
2018-04-30T07:31:02.309Z,990.91
2018-04-30T07:32:03.695Z,990.87
2018-04-30T07:33:05.161Z,990.88
2018-04-30T07:34:06.491Z,990.88
2018-04-30T07:35:07.884Z,990.94
2018-04-30T07:36:09.289Z,990.97
2018-04-30T07:37:10.700Z,990.88
2018-04-30T07:38:12.096Z,990.85
2018-04-30T07:39:13.486Z,990.91
2018-04-30T07:40:14.881Z,990.93
2018-04-30T07:41:16.278Z,990.90
2018-04-30T07:42:17.670Z,990.87
2018-04-30T07:43:19.060Z,990.83
2018-04-30T07:44:20.457Z,990.79
2018-04-30T07:45:21.853Z,990.80
2018-04-30T07:46:23.238Z,990.87
2018-04-30T07:47:24.637Z,990.88
2018-04-30T07:48:26.035Z,990.89
2018-04-30T07:49:27.442Z,990.82
2018-04-30T07:50:28.825Z,990.78
2018-04-30T07:51:30.222Z,990.83
2018-04-30T07:52:31.646Z,990.81
2018-04-30T07:53:33.031Z,990.82
2018-04-30T07:54:34.503Z,990.86
2018-04-30T07:55:35.825Z,990.83
2018-04-30T07:56:37.224Z,990.86
2018-04-30T07:57:38.612Z,990.90
2018-04-30T07:58:40.018Z,990.84
2018-04-30T07:59:41.400Z,990.89
2018-04-30T08:00:42.802Z,990.82
2018-04-30T08:01:44.194Z,990.81
2018-04-30T08:02:45.597Z,990.64
2018-04-30T08:03:46.994Z,990.67
2018-04-30T08:04:48.392Z,990.63
2018-04-30T08:05:49.785Z,990.64
2018-04-30T08:06:51.173Z,990.67
2018-04-30T08:07:52.571Z,990.73
2018-04-30T08:08:53.967Z,990.77
2018-04-30T08:09:55.364Z,990.68
2018-04-30T08:10:56.775Z,990.68
2018-04-30T08:11:58.162Z,990.64
2018-04-30T08:12:59.563Z,990.63
2018-04-30T08:14:00.961Z,990.66
2018-04-30T08:15:02.360Z,990.64
2018-04-30T08:16:03.752Z,990.69
2018-04-30T08:17:05.161Z,990.67
2018-04-30T08:18:06.557Z,990.66
2018-04-30T08:19:07.941Z,990.59
2018-04-30T08:20:09.340Z,990.56
2018-04-30T08:21:10.735Z,990.59
2018-04-30T08:22:12.127Z,990.56
2018-04-30T08:23:13.522Z,990.52
2018-04-30T08:24:14.922Z,990.58
2018-04-30T08:25:16.317Z,990.56
2018-04-30T08:26:17.718Z,990.65
2018-04-30T08:27:19.112Z,990.68
2018-04-30T08:28:20.506Z,990.70
2018-04-30T08:29:21.904Z,990.70
2018-04-30T08:30:24.151Z,990.60
2018-04-30T08:31:25.546Z,990.63
2018-04-30T08:32:26.941Z,990.59
2018-04-30T08:33:28.339Z,990.54
2018-04-30T08:34:29.735Z,990.58
2018-04-30T08:35:31.133Z,990.53
2018-04-30T08:36:32.597Z,990.54
2018-04-30T08:37:33.883Z,990.51
2018-04-30T08:38:35.279Z,990.53
2018-04-30T08:39:36.684Z,990.51
2018-04-30T08:40:38.074Z,990.49
2018-04-30T08:41:39.480Z,990.39
2018-04-30T08:42:40.875Z,990.35
2018-04-30T08:43:42.270Z,990.36
2018-04-30T08:44:43.668Z,990.42
2018-04-30T08:45:45.065Z,990.42
2018-04-30T08:46:46.481Z,990.38
2018-04-30T08:47:47.865Z,990.32
2018-04-30T08:48:49.266Z,990.29
2018-04-30T08:49:50.659Z,990.24
2018-04-30T08:50:52.057Z,990.29
2018-04-30T08:51:53.460Z,990.28
2018-04-30T08:52:54.869Z,990.27
2018-04-30T08:53:56.281Z,990.24
2018-04-30T08:54:57.666Z,990.19
2018-04-30T08:55:59.055Z,990.31
2018-04-30T08:57:00.462Z,990.33
2018-04-30T08:58:01.848Z,990.36
2018-04-30T08:59:03.243Z,990.39
2018-04-30T09:00:04.640Z,990.41
2018-04-30T09:01:06.050Z,990.42
2018-04-30T09:02:07.445Z,990.41
2018-04-30T09:03:08.835Z,990.45
2018-04-30T09:04:10.236Z,990.44
2018-04-30T09:05:11.628Z,990.38
2018-04-30T09:06:13.022Z,990.44
2018-04-30T09:07:14.413Z,990.32
2018-04-30T09:08:15.813Z,990.37
2018-04-30T09:09:17.203Z,990.35
2018-04-30T09:10:18.607Z,990.34
2018-04-30T09:11:20.020Z,990.34
2018-04-30T09:12:21.420Z,990.39
2018-04-30T09:13:22.824Z,990.32
2018-04-30T09:14:24.214Z,990.34
2018-04-30T09:15:25.599Z,990.32
2018-04-30T09:16:26.992Z,990.28
2018-04-30T09:17:28.388Z,990.17
2018-04-30T09:18:29.807Z,990.12
2018-04-30T09:19:31.195Z,990.14
2018-04-30T09:20:32.581Z,990.16
2018-04-30T09:21:33.980Z,990.16
2018-04-30T09:22:35.375Z,990.19
2018-04-30T09:23:36.789Z,990.14
2018-04-30T09:24:38.184Z,990.12
2018-04-30T09:25:39.542Z,989.99
2018-04-30T09:26:40.943Z,990.11
2018-04-30T09:27:42.338Z,990.02
2018-04-30T09:28:43.737Z,990.04
2018-04-30T09:29:45.133Z,990.02
2018-04-30T09:30:47.378Z,990.10
2018-04-30T09:31:48.773Z,990.08
2018-04-30T09:32:50.172Z,990.10
2018-04-30T09:33:51.586Z,990.13
2018-04-30T09:34:53.027Z,990.18
2018-04-30T09:35:54.382Z,990.21
2018-04-30T09:36:55.780Z,990.27
2018-04-30T09:37:57.176Z,990.36
2018-04-30T09:38:58.575Z,990.35
2018-04-30T09:39:59.969Z,990.26
2018-04-30T09:41:01.370Z,990.24
2018-04-30T09:42:02.765Z,990.29
2018-04-30T09:43:04.165Z,990.31
2018-04-30T09:44:05.563Z,990.35
2018-04-30T09:45:06.967Z,990.37
2018-04-30T09:46:08.351Z,990.36
2018-04-30T09:47:09.767Z,990.26
2018-04-30T09:48:11.176Z,990.30
2018-04-30T09:49:12.666Z,990.31
2018-04-30T09:50:13.975Z,990.37
2018-04-30T09:51:15.379Z,990.30
2018-04-30T09:52:16.776Z,990.29
2018-04-30T09:53:18.195Z,990.24
2018-04-30T09:54:19.612Z,990.26
2018-04-30T09:55:21.015Z,990.24
2018-04-30T09:56:22.418Z,990.28
2018-04-30T09:57:23.816Z,990.27
2018-04-30T09:58:25.226Z,990.32
2018-04-30T09:59:26.629Z,990.37
2018-04-30T10:00:28.036Z,990.42
2018-04-30T10:01:29.455Z,990.43
2018-04-30T10:02:30.857Z,990.39
2018-04-30T10:03:32.269Z,990.47
2018-04-30T10:04:33.669Z,990.40
2018-04-30T10:05:35.081Z,990.40
2018-04-30T10:06:37.039Z,990.41
2018-04-30T10:07:38.439Z,990.46
2018-04-30T10:08:39.847Z,990.40
2018-04-30T10:09:41.257Z,990.45
2018-04-30T10:10:42.656Z,990.48
2018-04-30T10:11:44.072Z,990.39
2018-04-30T10:12:45.477Z,990.48
2018-04-30T10:13:46.887Z,990.44
2018-04-30T10:14:48.297Z,990.40
2018-04-30T10:15:49.695Z,990.44
2018-04-30T10:16:51.110Z,990.48
2018-04-30T10:17:52.516Z,990.48
2018-04-30T10:18:53.919Z,990.45
2018-04-30T10:19:55.330Z,990.47
2018-04-30T10:20:56.742Z,990.54
2018-04-30T10:21:58.152Z,990.53
2018-04-30T10:22:59.560Z,990.42
2018-04-30T10:24:00.971Z,990.43
2018-04-30T10:25:02.387Z,990.45
2018-04-30T10:26:03.786Z,990.54
2018-04-30T10:27:05.195Z,990.44
2018-04-30T10:28:06.599Z,990.41
2018-04-30T10:29:08.037Z,990.44
2018-04-30T10:30:09.395Z,990.50
2018-04-30T10:31:10.797Z,990.50
2018-04-30T10:32:12.195Z,990.51
2018-04-30T10:33:13.607Z,990.47
2018-04-30T10:34:15.009Z,990.45
2018-04-30T10:35:16.429Z,990.43
2018-04-30T10:36:17.830Z,990.45
2018-04-30T10:37:19.241Z,990.50
2018-04-30T10:38:20.642Z,990.54
2018-04-30T10:39:22.052Z,990.57
2018-04-30T10:40:23.444Z,990.56
2018-04-30T10:41:25.504Z,990.52
2018-04-30T10:42:26.901Z,990.53
2018-04-30T10:43:28.297Z,990.68
2018-04-30T10:44:29.702Z,990.70
2018-04-30T10:45:32.080Z,990.70
2018-04-30T10:46:33.486Z,990.79
2018-04-30T10:47:34.885Z,990.75
2018-04-30T10:48:36.305Z,990.73
2018-04-30T10:49:37.712Z,990.73
2018-04-30T10:50:39.107Z,990.72
2018-04-30T10:51:40.547Z,990.76
2018-04-30T10:52:41.926Z,990.76
2018-04-30T10:53:43.314Z,990.63
2018-04-30T10:54:44.711Z,990.73
2018-04-30T10:55:46.107Z,990.60
2018-04-30T10:56:47.517Z,990.64
2018-04-30T10:57:48.932Z,990.82
2018-04-30T10:58:50.335Z,990.72
2018-04-30T10:59:51.735Z,990.77
2018-04-30T11:00:53.135Z,991.04
2018-04-30T11:01:54.539Z,990.95
2018-04-30T11:02:55.941Z,990.94
2018-04-30T11:03:57.399Z,990.93
2018-04-30T11:04:58.809Z,991.03
2018-04-30T11:06:00.207Z,990.88
2018-04-30T11:07:01.619Z,990.85
2018-04-30T11:08:03.022Z,990.84
2018-04-30T11:09:04.418Z,990.94
2018-04-30T11:10:05.824Z,991.06
2018-04-30T11:11:07.222Z,991.05
2018-04-30T11:12:09.457Z,991.02
2018-04-30T11:13:10.898Z,991.03
2018-04-30T11:14:12.298Z,990.98
2018-04-30T11:15:13.689Z,991.05
2018-04-30T11:16:15.089Z,991.01
2018-04-30T11:17:16.485Z,991.13
2018-04-30T11:18:17.892Z,991.14
2018-04-30T11:19:19.295Z,991.16
2018-04-30T11:20:20.695Z,991.08
2018-04-30T11:21:22.090Z,991.12
2018-04-30T11:22:24.041Z,991.08
2018-04-30T11:23:25.442Z,991.09
2018-04-30T11:24:26.840Z,991.08
2018-04-30T11:25:28.248Z,991.11
2018-04-30T11:26:29.637Z,991.11
2018-04-30T11:27:31.082Z,991.09
2018-04-30T11:28:32.445Z,991.08
2018-04-30T11:29:33.839Z,991.11
2018-04-30T11:30:35.249Z,991.23
2018-04-30T11:31:36.643Z,991.21
2018-04-30T11:32:38.045Z,991.21
2018-04-30T11:33:39.444Z,991.24
2018-04-30T11:34:40.838Z,991.12
2018-04-30T11:35:42.233Z,991.20
2018-04-30T11:36:43.633Z,991.25
2018-04-30T11:37:45.028Z,991.28
2018-04-30T11:38:46.432Z,991.29
2018-04-30T11:39:47.834Z,991.26
2018-04-30T11:40:49.228Z,991.23
2018-04-30T11:41:50.634Z,991.21
2018-04-30T11:42:52.040Z,991.15
2018-04-30T11:43:53.438Z,991.17
2018-04-30T11:44:54.844Z,991.20
2018-04-30T11:45:56.239Z,991.24
2018-04-30T11:46:57.648Z,991.22
2018-04-30T11:47:59.111Z,991.23
2018-04-30T11:49:00.438Z,991.21
2018-04-30T11:50:01.840Z,991.22
2018-04-30T11:51:03.227Z,991.23
2018-04-30T11:52:04.631Z,991.29
2018-04-30T11:53:06.043Z,991.24
2018-04-30T11:54:07.437Z,991.23
2018-04-30T11:55:08.835Z,991.24
2018-04-30T11:56:10.231Z,991.25
2018-04-30T11:57:11.625Z,991.32
2018-04-30T11:58:13.016Z,991.33
2018-04-30T11:59:14.413Z,991.40
2018-04-30T12:00:15.817Z,991.42
2018-04-30T12:01:18.759Z,991.46
2018-04-30T12:02:20.166Z,991.54
2018-04-30T12:03:21.553Z,991.57
2018-04-30T12:04:22.955Z,991.58
2018-04-30T12:05:24.353Z,991.61
2018-04-30T12:06:25.741Z,991.58
2018-04-30T12:07:27.140Z,991.55
2018-04-30T12:08:28.535Z,991.53
2018-04-30T12:09:29.943Z,991.54
2018-04-30T12:10:31.342Z,991.57
2018-04-30T12:11:32.736Z,991.55
2018-04-30T12:12:34.131Z,991.58
2018-04-30T12:13:35.528Z,991.57
2018-04-30T12:14:36.941Z,991.60
2018-04-30T12:15:38.337Z,991.62
2018-04-30T12:16:39.741Z,991.61
2018-04-30T12:17:41.137Z,991.60
2018-04-30T12:18:42.523Z,991.61
2018-04-30T12:19:43.924Z,991.63
2018-04-30T12:20:45.319Z,991.70
2018-04-30T12:21:46.717Z,991.69
2018-04-30T12:22:48.105Z,991.74
2018-04-30T12:23:49.505Z,991.73
2018-04-30T12:24:50.903Z,991.79
2018-04-30T12:25:52.297Z,991.82
2018-04-30T12:26:53.698Z,991.84
2018-04-30T12:27:55.044Z,991.83
2018-04-30T12:28:56.995Z,991.87
2018-04-30T12:29:57.776Z,991.92
2018-04-30T12:30:59.177Z,991.96
2018-04-30T12:32:00.580Z,992.08
2018-04-30T12:33:01.985Z,992.09
2018-04-30T12:34:03.375Z,992.17
2018-04-30T12:35:04.774Z,992.11
2018-04-30T12:36:06.184Z,992.11
2018-04-30T12:37:07.578Z,992.08
2018-04-30T12:38:09.969Z,992.09
2018-04-30T12:39:11.317Z,992.18
2018-04-30T12:40:12.724Z,992.13
2018-04-30T12:41:14.116Z,992.19
2018-04-30T12:42:15.514Z,992.18
2018-04-30T12:43:16.898Z,992.23
2018-04-30T12:44:18.294Z,992.27
2018-04-30T12:45:19.703Z,992.34
2018-04-30T12:46:21.098Z,992.42